createdAt,value
2023-03-28T00:00:19.465Z,34.92
2023-03-28T00:03:06.384Z,31.85
2023-03-28T00:05:40.201Z,32.25
2023-03-28T00:08:27.360Z,31.42
2023-03-28T00:11:20.226Z,32.38
2023-03-28T00:14:08.481Z,32.80
2023-03-28T00:16:53.375Z,32.13
2023-03-28T00:19:47.353Z,32.00
2023-03-28T00:22:37.393Z,32.20
2023-03-28T00:25:21.371Z,30.63
2023-03-28T00:28:09.426Z,32.17
2023-03-28T00:30:49.389Z,31.75
2023-03-28T00:33:43.358Z,32.05
2023-03-28T00:36:39.379Z,33.08
2023-03-28T00:39:26.362Z,30.00
2023-03-28T00:42:01.571Z,31.73
2023-03-28T00:44:51.405Z,32.45
2023-03-28T00:47:47.438Z,30.65
2023-03-28T00:50:48.377Z,30.65
2023-03-28T00:53:35.467Z,32.70
2023-03-28T00:56:20.350Z,32.10
2023-03-28T00:59:19.416Z,31.42
2023-03-28T01:02:06.445Z,31.40
2023-03-28T01:04:53.376Z,31.55
2023-03-28T01:07:47.369Z,32.13
2023-03-28T01:10:20.612Z,30.58
2023-03-28T01:13:09.454Z,33.63
2023-03-28T01:15:42.672Z,31.42
2023-03-28T01:18:30.370Z,33.33
2023-03-28T01:21:28.096Z,30.90
2023-03-28T01:24:39.454Z,31.48
2023-03-28T01:27:29.532Z,29.25
2023-03-28T01:30:43.454Z,31.13
2023-03-28T01:33:36.121Z,29.73
2023-03-28T01:36:59.403Z,31.55
2023-03-28T01:40:21.254Z,27.67
2023-03-28T01:43:20.407Z,30.00
2023-03-28T01:46:19.439Z,31.50
2023-03-28T01:49:25.390Z,29.52
2023-03-28T01:52:29.362Z,29.10
2023-03-28T01:55:17.201Z,31.30
2023-03-28T01:58:49.384Z,32.75
2023-03-28T02:01:43.430Z,29.92
2023-03-28T02:04:22.497Z,31.33
2023-03-28T02:07:10.378Z,30.00
2023-03-28T02:09:51.396Z,28.67
2023-03-28T02:12:50.388Z,30.80
2023-03-28T02:15:39.418Z,31.38
2023-03-28T02:18:21.567Z,32.25
2023-03-28T02:21:13.389Z,31.33
2023-03-28T02:23:50.508Z,32.33
2023-03-28T02:26:38.391Z,29.08
2023-03-28T02:29:12.848Z,29.92
2023-03-28T02:31:59.444Z,29.98
2023-03-28T02:34:32.599Z,30.00
2023-03-28T02:37:32.435Z,31.40
2023-03-28T02:40:17.497Z,31.60
2023-03-28T02:43:13.489Z,32.95
2023-03-28T02:46:07.631Z,30.70
2023-03-28T02:49:00.477Z,30.75
2023-03-28T02:52:41.430Z,30.33
2023-03-28T02:55:44.424Z,30.08
2023-03-28T02:58:40.412Z,32.35
2023-03-28T03:01:14.732Z,31.95
2023-03-28T03:04:02.458Z,30.02
2023-03-28T03:06:43.399Z,31.85
2023-03-28T03:09:30.426Z,30.35
2023-03-28T03:12:10.393Z,28.02
2023-03-28T03:15:07.455Z,30.50
2023-03-28T03:17:54.516Z,28.80
2023-03-28T03:20:27.544Z,32.17
2023-03-28T03:23:14.428Z,30.95
2023-03-28T03:25:50.641Z,30.50
2023-03-28T03:28:38.425Z,29.90
2023-03-28T03:31:18.442Z,31.50
2023-03-28T03:34:12.473Z,32.10
2023-03-28T03:37:02.478Z,30.17
2023-03-28T03:39:42.427Z,30.42
2023-03-28T03:42:29.416Z,30.10
2023-03-28T03:45:09.493Z,29.38
2023-03-28T03:48:03.482Z,28.48
2023-03-28T03:50:50.415Z,29.38
2023-03-28T03:53:23.517Z,31.15
2023-03-28T03:56:11.475Z,31.25
2023-03-28T03:58:51.403Z,29.33
2023-03-28T04:01:46.489Z,28.88
2023-03-28T04:04:40.497Z,29.58
2023-03-28T04:07:27.445Z,29.65
2023-03-28T04:10:00.671Z,26.70
2023-03-28T04:12:47.436Z,28.08
2023-03-28T04:15:20.664Z,27.60
2023-03-28T04:18:09.524Z,27.27
2023-03-28T04:20:43.699Z,26.15
2023-03-28T04:23:50.429Z,28.10
2023-03-28T04:26:44.420Z,27.10
2023-03-28T04:29:37.448Z,27.75
2023-03-28T04:32:12.931Z,28.33
2023-03-28T04:35:07.438Z,28.40
2023-03-28T04:37:55.450Z,30.00
2023-03-28T04:40:29.392Z,27.08
2023-03-28T04:43:16.433Z,27.55
2023-03-28T04:45:49.594Z,27.98
2023-03-28T04:48:36.458Z,31.75
2023-03-28T04:51:10.678Z,33.60
2023-03-28T04:53:57.449Z,31.67
2023-03-28T04:56:30.525Z,29.45
2023-03-28T04:59:18.468Z,25.23
2023-03-28T05:01:52.735Z,28.17
2023-03-28T05:04:39.522Z,28.50
2023-03-28T05:07:13.540Z,28.48
2023-03-28T05:10:00.482Z,26.10
2023-03-28T05:12:40.477Z,25.85
2023-03-28T05:15:27.438Z,28.00
2023-03-28T05:18:00.792Z,29.60
2023-03-28T05:20:47.444Z,27.67
2023-03-28T05:23:27.453Z,28.80
2023-03-28T05:26:14.446Z,27.60
2023-03-28T05:28:47.589Z,27.90
2023-03-28T05:31:37.488Z,29.10
2023-03-28T05:34:10.763Z,28.55
2023-03-28T05:36:57.483Z,26.80
2023-03-28T05:39:30.533Z,30.25
2023-03-28T05:42:17.439Z,30.75
2023-03-28T05:44:50.638Z,30.48
2023-03-28T05:47:37.479Z,32.50
2023-03-28T05:50:18.464Z,31.40
2023-03-28T05:53:12.479Z,33.17
2023-03-28T05:55:59.479Z,34.30
2023-03-28T05:58:32.640Z,35.22
2023-03-28T06:01:19.452Z,35.30
2023-03-28T06:03:52.649Z,33.22
2023-03-28T06:06:42.517Z,36.00
2023-03-28T06:09:15.697Z,31.65
2023-03-28T06:12:02.465Z,35.30
2023-03-28T06:14:36.546Z,34.90
2023-03-28T06:17:23.462Z,33.83
2023-03-28T06:19:56.787Z,32.45
2023-03-28T06:22:44.517Z,33.38
2023-03-28T06:25:17.592Z,34.45
2023-03-28T06:28:04.496Z,30.52
2023-03-28T06:30:39.989Z,32.33
2023-03-28T06:33:26.455Z,32.13
2023-03-28T06:35:59.713Z,31.13
2023-03-28T06:38:46.553Z,30.75
2023-03-28T06:41:19.674Z,28.05
2023-03-28T06:44:06.496Z,31.00
2023-03-28T06:46:39.747Z,29.13
2023-03-28T06:49:26.523Z,29.17
2023-03-28T06:51:59.550Z,28.20
2023-03-28T06:54:48.481Z,27.83
2023-03-28T06:57:22.692Z,28.45
2023-03-28T07:00:10.586Z,27.20
2023-03-28T07:02:50.578Z,27.67
2023-03-28T07:05:37.502Z,29.02
2023-03-28T07:08:17.537Z,27.60
2023-03-28T07:11:11.478Z,25.30
2023-03-28T07:14:05.499Z,26.25
2023-03-28T07:16:52.574Z,27.73
2023-03-28T07:19:25.581Z,28.42
2023-03-28T07:22:12.500Z,27.65
2023-03-28T07:24:45.661Z,28.55
2023-03-28T07:27:32.507Z,25.50
2023-03-28T07:30:12.492Z,25.98
2023-03-28T07:33:14.135Z,27.10
2023-03-28T07:35:57.559Z,31.17
2023-03-28T07:38:46.536Z,28.63
2023-03-28T07:41:24.501Z,29.80
2023-03-28T07:44:11.514Z,28.63
2023-03-28T07:46:44.590Z,33.63
2023-03-28T07:49:31.504Z,32.78
2023-03-28T07:52:05.920Z,32.72
2023-03-28T07:54:55.499Z,37.28
2023-03-28T07:57:28.588Z,33.03
2023-03-28T08:00:19.620Z,33.95
2023-03-28T08:02:52.735Z,31.98
2023-03-28T08:05:44.554Z,31.23
2023-03-28T08:08:24.517Z,35.30
2023-03-28T08:11:18.523Z,31.40
2023-03-28T08:14:12.512Z,32.60
2023-03-28T08:17:06.559Z,30.73
2023-03-28T08:20:00.552Z,28.58
2023-03-28T08:22:47.517Z,31.15
2023-03-28T08:25:20.842Z,30.95
2023-03-28T08:28:07.570Z,32.65
2023-03-28T08:30:41.696Z,34.75
2023-03-28T08:33:28.536Z,34.08
2023-03-28T08:36:02.686Z,35.17
2023-03-28T08:38:53.583Z,29.45
2023-03-28T08:42:12.525Z,25.73
2023-03-28T08:45:17.534Z,26.92
2023-03-28T08:48:11.794Z,27.58
2023-03-28T08:51:16.511Z,27.33
2023-03-28T08:54:00.883Z,29.08
2023-03-28T08:56:52.595Z,27.73
2023-03-28T08:59:29.683Z,23.85
2023-03-28T09:02:26.630Z,25.83
2023-03-28T09:05:17.749Z,78.20
2023-03-28T09:08:32.644Z,28.08
2023-03-28T09:11:11.721Z,26.42
2023-03-28T09:14:17.522Z,35.20
2023-03-28T09:17:12.644Z,28.48
2023-03-28T09:19:59.609Z,29.80
2023-03-28T09:22:47.021Z,30.15
2023-03-28T09:25:42.534Z,29.25
2023-03-28T09:28:37.538Z,30.20
2023-03-28T09:31:27.671Z,30.38
2023-03-28T09:34:09.525Z,29.65
2023-03-28T09:37:07.506Z,28.08
2023-03-28T09:40:00.529Z,29.63
2023-03-28T09:43:11.695Z,32.83
2023-03-28T09:46:09.615Z,32.70
2023-03-28T09:48:51.686Z,34.35
2023-03-28T09:51:45.572Z,30.65
2023-03-28T09:54:36.539Z,31.02
2023-03-28T09:57:11.743Z,33.05
2023-03-28T09:59:58.576Z,34.83
2023-03-28T10:02:33.772Z,32.67
2023-03-28T10:05:47.605Z,31.85
2023-03-28T10:08:46.530Z,29.73
2023-03-28T10:11:33.646Z,31.23
2023-03-28T10:14:06.923Z,30.55
2023-03-28T10:16:54.659Z,31.73
2023-03-28T10:19:33.374Z,27.27
2023-03-28T10:22:45.545Z,30.25
2023-03-28T10:25:35.542Z,28.27
2023-03-28T10:28:40.546Z,26.15
2023-03-28T10:31:38.594Z,30.83
2023-03-28T10:34:43.555Z,29.92
2023-03-28T10:37:35.585Z,31.05
2023-03-28T10:40:30.149Z,30.38
2023-03-28T10:43:20.575Z,26.40
2023-03-28T10:45:54.698Z,28.02
2023-03-28T10:48:43.588Z,27.05
2023-03-28T10:51:24.750Z,24.92
2023-03-28T10:54:33.563Z,24.23
2023-03-28T10:57:13.858Z,25.13
2023-03-28T11:00:16.580Z,26.05
2023-03-28T11:03:02.910Z,26.63
2023-03-28T11:06:08.536Z,25.30
2023-03-28T11:09:11.605Z,25.73
2023-03-28T11:12:28.002Z,28.05
2023-03-28T11:15:05.837Z,25.13
2023-03-28T11:18:32.579Z,24.42
2023-03-28T11:21:31.567Z,20.63
2023-03-28T11:24:44.573Z,18.17
2023-03-28T11:27:39.567Z,15.95
2023-03-28T11:30:39.576Z,13.80
2023-03-28T11:33:32.655Z,13.73
2023-03-28T11:36:35.629Z,14.70
2023-03-28T11:39:41.567Z,12.93
2023-03-28T11:42:24.851Z,14.93
2023-03-28T11:45:33.931Z,13.35
2023-03-28T11:48:33.593Z,12.70
2023-03-28T11:51:49.586Z,14.02
2023-03-28T11:54:51.593Z,14.45
2023-03-28T11:57:25.123Z,12.32
2023-03-28T12:00:32.154Z,13.85
2023-03-28T12:03:22.113Z,11.82
2023-03-28T12:06:11.557Z,13.75
2023-03-28T12:08:59.732Z,16.60
2023-03-28T12:11:54.578Z,12.38
2023-03-28T12:14:33.741Z,12.77
2023-03-28T12:17:46.639Z,11.50
2023-03-28T12:20:56.140Z,12.82
2023-03-28T12:24:04.579Z,11.23
2023-03-28T12:27:19.594Z,13.38
2023-03-28T12:30:33.589Z,11.63
2023-03-28T12:33:22.838Z,16.55
2023-03-28T12:36:36.601Z,11.55
2023-03-28T12:39:41.597Z,11.70
2023-03-28T12:42:20.754Z,13.07
2023-03-28T12:45:13.605Z,13.27
2023-03-28T12:47:55.883Z,13.10
2023-03-28T12:51:17.607Z,14.10
2023-03-28T12:53:53.724Z,14.43
2023-03-28T12:56:41.687Z,12.98
2023-03-28T12:59:49.616Z,12.50
2023-03-28T13:03:06.639Z,12.68
2023-03-28T13:06:31.606Z,11.38
2023-03-28T13:09:32.685Z,11.10
2023-03-28T13:12:37.623Z,11.00
2023-03-28T13:15:27.968Z,12.07
2023-03-28T13:18:26.282Z,10.63
2023-03-28T13:21:13.606Z,14.48
2023-03-28T13:23:54.765Z,13.65
2023-03-28T13:27:03.616Z,14.05
2023-03-28T13:30:00.671Z,14.38
2023-03-28T13:33:18.662Z,14.40
2023-03-28T13:36:12.688Z,15.05
2023-03-28T13:39:18.673Z,13.35
2023-03-28T13:42:06.660Z,14.48
2023-03-28T13:44:48.763Z,14.23
2023-03-28T13:47:46.691Z,14.93
2023-03-28T13:50:32.799Z,15.23
2023-03-28T13:53:19.633Z,15.70
2023-03-28T13:55:52.770Z,14.52
2023-03-28T13:58:39.645Z,15.98
2023-03-28T14:01:15.297Z,15.05
2023-03-28T14:04:02.694Z,13.90
2023-03-28T14:06:43.625Z,13.82
2023-03-28T14:09:34.678Z,13.30
2023-03-28T14:12:27.744Z,13.95
2023-03-28T14:15:16.695Z,13.40
2023-03-28T14:17:57.742Z,14.40
2023-03-28T14:20:51.623Z,15.02
2023-03-28T14:23:51.697Z,14.57
2023-03-28T14:26:41.673Z,14.35
2023-03-28T14:29:26.666Z,12.55
2023-03-28T14:32:50.678Z,11.65
2023-03-28T14:35:52.708Z,16.10
2023-03-28T14:38:51.675Z,16.27
2023-03-28T14:41:49.641Z,16.33
2023-03-28T14:44:38.667Z,13.80
2023-03-28T14:47:12.760Z,14.38
2023-03-28T14:50:00.689Z,14.35
2023-03-28T14:52:41.088Z,13.43
2023-03-28T14:55:32.669Z,13.77
2023-03-28T14:58:14.668Z,14.85
2023-03-28T15:01:12.711Z,14.60
2023-03-28T15:04:04.689Z,15.50
2023-03-28T15:06:40.769Z,14.98
2023-03-28T15:09:39.702Z,13.63
2023-03-28T15:12:15.232Z,12.23
2023-03-28T15:15:01.695Z,12.80
2023-03-28T15:17:41.741Z,13.35
2023-03-28T15:20:34.674Z,14.32
2023-03-28T15:23:11.797Z,13.48
2023-03-28T15:25:59.699Z,13.15
2023-03-28T15:28:35.161Z,12.40
2023-03-28T15:31:23.765Z,12.77
2023-03-28T15:33:58.758Z,11.85
2023-03-28T15:37:02.672Z,13.48
2023-03-28T15:39:57.691Z,14.85
2023-03-28T15:42:44.678Z,12.93
2023-03-28T15:45:27.126Z,13.32
2023-03-28T15:48:21.688Z,12.60
2023-03-28T15:51:04.667Z,13.90
2023-03-28T15:54:00.665Z,13.85
2023-03-28T15:56:52.771Z,13.77
2023-03-28T15:59:36.076Z,11.15
2023-03-28T16:02:31.786Z,11.82
2023-03-28T16:05:11.015Z,12.23
2023-03-28T16:07:57.759Z,13.32
2023-03-28T16:10:38.683Z,12.32
2023-03-28T16:13:32.678Z,11.40
2023-03-28T16:16:39.828Z,11.48
2023-03-28T16:19:34.056Z,11.75
2023-03-28T16:22:14.704Z,11.65
2023-03-28T16:25:08.714Z,11.48
2023-03-28T16:28:02.719Z,12.48
2023-03-28T16:30:47.730Z,12.80
2023-03-28T16:33:27.701Z,14.00
2023-03-28T16:36:08.932Z,12.35
2023-03-28T16:39:02.668Z,12.18
2023-03-28T16:41:49.702Z,12.77
2023-03-28T16:44:29.698Z,13.05
2023-03-28T16:47:23.780Z,13.52
2023-03-28T16:50:11.698Z,15.40
2023-03-28T16:52:45.783Z,13.70
2023-03-28T16:55:32.688Z,13.65
2023-03-28T16:58:05.822Z,15.35
2023-03-28T17:00:52.802Z,15.63
2023-03-28T17:03:25.923Z,15.95
2023-03-28T17:06:16.723Z,21.05
2023-03-28T17:08:53.234Z,18.48
2023-03-28T17:11:39.691Z,14.73
2023-03-28T17:14:12.847Z,16.58
2023-03-28T17:16:59.725Z,15.20
2023-03-28T17:19:39.743Z,15.27
2023-03-28T17:22:27.747Z,15.63
2023-03-28T17:25:08.707Z,15.27
2023-03-28T17:27:55.767Z,14.88
2023-03-28T17:30:35.798Z,13.95
2023-03-28T17:33:30.701Z,13.45
2023-03-28T17:36:42.411Z,13.10
2023-03-28T17:39:35.757Z,13.02
2023-03-28T17:42:29.773Z,14.35
2023-03-28T17:45:17.673Z,15.38
2023-03-28T17:47:57.783Z,15.18
2023-03-28T17:50:45.749Z,14.43
2023-03-28T17:53:25.742Z,13.80
2023-03-28T17:56:13.778Z,15.05
2023-03-28T17:58:46.993Z,16.50
2023-03-28T18:01:33.835Z,16.30
2023-03-28T18:04:06.990Z,15.20
2023-03-28T18:06:53.750Z,15.45
2023-03-28T18:09:28.519Z,16.38
2023-03-28T18:12:15.756Z,15.80
2023-03-28T18:14:49.223Z,14.02
2023-03-28T18:17:35.777Z,14.52
2023-03-28T18:20:08.894Z,16.02
2023-03-28T18:22:55.746Z,17.67
2023-03-28T18:25:32.883Z,17.88
2023-03-28T18:28:19.768Z,18.90
2023-03-28T18:30:52.892Z,17.25
2023-03-28T18:33:39.774Z,17.73
2023-03-28T18:36:20.831Z,19.02
2023-03-28T18:39:14.704Z,18.80
2023-03-28T18:42:01.757Z,18.38
2023-03-28T18:44:37.045Z,19.02
2023-03-28T18:47:25.030Z,18.77
2023-03-28T18:50:07.749Z,19.92
2023-03-28T18:53:02.119Z,21.48
2023-03-28T18:55:55.767Z,21.13
2023-03-28T18:58:50.828Z,19.23
2023-03-28T19:01:39.023Z,17.30
2023-03-28T19:04:19.959Z,15.40
2023-03-28T19:07:06.773Z,14.98
2023-03-28T19:09:46.807Z,14.80
2023-03-28T19:12:40.781Z,16.60
2023-03-28T19:15:29.638Z,15.55
2023-03-28T19:18:10.826Z,15.82
2023-03-28T19:21:04.795Z,15.25
2023-03-28T19:23:53.757Z,15.60
2023-03-28T19:26:27.362Z,15.70
2023-03-28T19:29:13.757Z,16.17
2023-03-28T19:31:46.958Z,15.45
2023-03-28T19:34:34.775Z,15.93
2023-03-28T19:37:08.126Z,16.40
2023-03-28T19:39:54.776Z,14.27
2023-03-28T19:42:34.773Z,16.02
2023-03-28T19:45:21.961Z,15.25
2023-03-28T19:47:55.995Z,16.08
2023-03-28T19:50:43.892Z,14.32
2023-03-28T19:53:24.816Z,15.77
2023-03-28T19:56:13.862Z,15.60
2023-03-28T19:58:46.915Z,16.92
2023-03-28T20:01:33.900Z,15.55
2023-03-28T20:04:06.915Z,18.27
2023-03-28T20:06:56.816Z,16.67
2023-03-28T20:09:29.917Z,16.55
2023-03-28T20:12:16.773Z,22.15
2023-03-28T20:14:57.775Z,17.70
2023-03-28T20:17:52.859Z,18.30
2023-03-28T20:20:39.773Z,18.70
2023-03-28T20:23:20.831Z,18.00
2023-03-28T20:26:14.806Z,17.85
2023-03-28T20:29:05.891Z,17.38
2023-03-28T20:31:38.935Z,18.17
2023-03-28T20:34:25.771Z,17.38
2023-03-28T20:37:05.834Z,15.50
2023-03-28T20:39:59.753Z,21.45
2023-03-28T20:42:47.879Z,17.70
2023-03-28T20:45:30.791Z,19.05
2023-03-28T20:48:26.521Z,20.65
2023-03-28T20:51:20.776Z,20.48
2023-03-28T20:53:55.881Z,18.38
2023-03-28T20:56:42.870Z,19.45
2023-03-28T20:59:15.940Z,17.15
2023-03-28T21:02:02.778Z,17.52
2023-03-28T21:04:36.392Z,18.05
2023-03-28T21:07:22.772Z,19.15
2023-03-28T21:09:56.042Z,17.63
2023-03-28T21:12:42.797Z,19.23
2023-03-28T21:15:28.920Z,22.15
2023-03-28T21:18:22.781Z,17.20
2023-03-28T21:21:17.868Z,19.38
2023-03-28T21:24:11.884Z,20.25
2023-03-28T21:27:05.829Z,19.73
2023-03-28T21:29:59.843Z,18.67
2023-03-28T21:32:53.904Z,17.30
2023-03-28T21:35:41.820Z,17.23
2023-03-28T21:38:35.956Z,19.05
2023-03-28T21:41:22.880Z,20.25
2023-03-28T21:43:57.127Z,20.45
2023-03-28T21:46:43.828Z,18.30
2023-03-28T21:49:19.358Z,17.58
2023-03-28T21:52:05.914Z,19.80
2023-03-28T21:54:38.883Z,19.10
2023-03-28T21:57:25.898Z,18.27
2023-03-28T21:59:58.889Z,18.10
2023-03-28T22:02:45.868Z,19.13
2023-03-28T22:05:28.633Z,19.42
2023-03-28T22:08:18.842Z,18.58
2023-03-28T22:10:54.915Z,18.33
2023-03-28T22:13:41.853Z,16.15
2023-03-28T22:16:16.148Z,18.33
2023-03-28T22:19:03.821Z,15.68
2023-03-28T22:21:37.995Z,18.90
2023-03-28T22:24:24.798Z,19.10
2023-03-28T22:26:58.018Z,17.67
2023-03-28T22:29:44.832Z,16.52
2023-03-28T22:32:17.951Z,16.92
2023-03-28T22:35:04.882Z,17.83
2023-03-28T22:37:44.829Z,17.27
2023-03-28T22:40:31.934Z,18.33
2023-03-28T22:43:05.913Z,17.88
2023-03-28T22:45:52.880Z,17.45
2023-03-28T22:48:30.035Z,16.85
2023-03-28T22:51:21.831Z,15.48
2023-03-28T22:53:56.209Z,16.88
2023-03-28T22:56:42.882Z,17.83
2023-03-28T22:59:22.836Z,15.68
2023-03-28T23:02:16.867Z,15.65
2023-03-28T23:05:11.873Z,16.42
2023-03-28T23:08:00.832Z,16.42
2023-03-28T23:10:34.006Z,17.20
2023-03-28T23:13:20.826Z,17.35
2023-03-28T23:16:01.937Z,15.73
2023-03-28T23:18:49.882Z,17.02
2023-03-28T23:21:24.528Z,15.10
2023-03-28T23:24:10.831Z,16.08
2023-03-28T23:26:51.827Z,16.42
2023-03-28T23:29:38.828Z,16.63
2023-03-28T23:32:11.935Z,15.40
2023-03-28T23:34:59.862Z,14.70
2023-03-28T23:37:40.853Z,16.45
2023-03-28T23:40:27.850Z,15.38
2023-03-28T23:43:01.013Z,14.77
2023-03-28T23:45:47.892Z,14.40
2023-03-28T23:48:21.124Z,16.42
2023-03-28T23:51:10.864Z,15.25
2023-03-28T23:53:50.855Z,14.63
2023-03-28T23:56:44.941Z,13.93
2023-03-28T23:59:31.823Z,14.75
